createdAt,value
2023-04-05T00:01:35.744Z,100803.09
2023-04-05T00:04:04.901Z,100803.78
2023-04-05T00:06:33.382Z,100800.31
2023-04-05T00:09:06.682Z,100796.84
2023-04-05T00:11:37.609Z,100796.75
2023-04-05T00:14:06.146Z,100796.53
2023-04-05T00:16:36.320Z,100795.66
2023-04-05T00:19:05.730Z,100794.66
2023-04-05T00:21:34.625Z,100799.81
2023-04-05T00:24:03.513Z,100791.84
2023-04-05T00:26:32.047Z,100797.00
2023-04-05T00:29:02.680Z,100788.28
2023-04-05T00:31:31.531Z,100785.50
2023-04-05T00:33:59.990Z,100784.53
2023-04-05T00:36:28.396Z,100784.28
2023-04-05T00:38:56.838Z,100790.91
2023-04-05T00:41:25.661Z,100781.28
2023-04-05T00:43:54.063Z,100778.50
2023-04-05T00:46:24.096Z,100787.91
2023-04-05T00:48:52.527Z,100767.06
2023-04-05T00:51:20.989Z,100766.19
2023-04-05T00:53:52.863Z,100766.09
2023-04-05T00:56:22.964Z,100766.75
2023-04-05T00:58:53.260Z,100772.72
2023-04-05T01:01:26.295Z,100769.16
2023-04-05T01:04:03.086Z,100761.31
2023-04-05T01:06:57.821Z,100767.94
2023-04-05T01:09:38.882Z,100769.53
2023-04-05T01:12:10.972Z,100767.63
2023-04-05T01:14:57.652Z,100773.47
2023-04-05T01:17:36.800Z,100764.75
2023-04-05T01:20:12.204Z,100769.69
2023-04-05T01:23:17.560Z,100761.66
2023-04-05T01:26:34.245Z,100759.88
2023-04-05T01:29:46.156Z,100765.50
2023-04-05T01:32:28.434Z,100765.28
2023-04-05T01:35:08.342Z,100772.22
2023-04-05T01:37:39.509Z,100764.28
2023-04-05T01:40:10.664Z,100761.59
2023-04-05T01:42:39.035Z,100763.28
2023-04-05T01:45:11.968Z,100759.69
2023-04-05T01:47:40.558Z,100748.41
2023-04-05T01:50:10.882Z,100738.00
2023-04-05T01:52:39.268Z,100739.56
2023-04-05T01:55:09.132Z,100740.25
2023-04-05T01:57:39.045Z,100727.94
2023-04-05T02:00:09.550Z,100738.25
2023-04-05T02:02:45.674Z,100738.03
2023-04-05T02:05:14.383Z,100736.25
2023-04-05T02:07:43.918Z,100735.28
2023-04-05T02:10:12.646Z,100737.84
2023-04-05T02:12:41.460Z,100742.00
2023-04-05T02:15:12.289Z,100735.75
2023-04-05T02:17:45.791Z,100737.44
2023-04-05T02:20:16.958Z,100727.78
2023-04-05T02:22:46.044Z,100726.00
2023-04-05T02:25:15.092Z,100736.09
2023-04-05T02:27:43.863Z,100726.47
2023-04-05T02:30:14.104Z,100728.16
2023-04-05T02:32:44.721Z,100723.69
2023-04-05T02:35:17.337Z,100726.28
2023-04-05T02:37:45.923Z,100737.25
2023-04-05T02:40:15.937Z,100729.41
2023-04-05T02:42:44.533Z,100723.38
2023-04-05T02:45:13.044Z,100721.47
2023-04-05T02:47:41.561Z,100723.03
2023-04-05T02:50:10.380Z,100714.34
2023-04-05T02:52:46.450Z,100711.53
2023-04-05T02:55:14.959Z,100711.34
2023-04-05T02:57:46.624Z,100726.78
2023-04-05T03:00:34.155Z,100724.66
2023-04-05T03:03:04.171Z,100733.19
2023-04-05T03:05:33.944Z,100730.38
2023-04-05T03:08:04.186Z,100725.34
2023-04-05T03:10:36.205Z,100726.69
2023-04-05T03:13:15.426Z,100724.13
2023-04-05T03:15:44.954Z,100719.63
2023-04-05T03:18:17.304Z,100724.66
2023-04-05T03:20:46.680Z,100733.16
2023-04-05T03:23:26.942Z,100715.81
2023-04-05T03:25:57.303Z,100717.41
2023-04-05T03:28:30.229Z,100722.44
2023-04-05T03:31:03.432Z,100724.13
2023-04-05T03:33:33.038Z,100715.50
2023-04-05T03:36:01.975Z,100713.63
2023-04-05T03:38:36.303Z,100712.72
2023-04-05T03:41:13.172Z,100716.72
2023-04-05T03:43:41.640Z,100720.13
2023-04-05T03:46:10.146Z,100712.16
2023-04-05T03:48:38.592Z,100707.72
2023-04-05T03:51:08.362Z,100709.28
2023-04-05T03:53:38.102Z,100706.69
2023-04-05T03:56:07.789Z,100709.94
2023-04-05T03:58:47.041Z,100712.41
2023-04-05T04:01:17.044Z,100711.41
2023-04-05T04:03:45.551Z,100715.66
2023-04-05T04:06:16.466Z,100713.09
2023-04-05T04:08:48.514Z,100713.88
2023-04-05T04:11:16.906Z,100706.03
2023-04-05T04:13:45.308Z,100706.91
2023-04-05T04:16:36.360Z,100705.81
2023-04-05T04:19:11.036Z,100702.22
2023-04-05T04:21:59.207Z,100699.47
2023-04-05T04:24:50.148Z,100709.50
2023-04-05T04:27:56.534Z,100707.63
2023-04-05T04:30:44.923Z,100701.34
2023-04-05T04:33:40.276Z,100708.09
2023-04-05T04:36:42.908Z,100700.25
2023-04-05T04:39:17.251Z,100712.22
2023-04-05T04:42:12.090Z,100701.81
2023-04-05T04:44:58.674Z,100706.09
2023-04-05T04:47:47.349Z,100704.28
2023-04-05T04:50:21.192Z,100705.06
2023-04-05T04:52:49.706Z,100703.16
2023-04-05T04:55:18.107Z,100712.53
2023-04-05T04:57:53.106Z,100712.53
2023-04-05T05:00:24.395Z,100708.09
2023-04-05T05:02:54.368Z,100712.34
2023-04-05T05:05:23.550Z,100713.13
2023-04-05T05:07:53.643Z,100712.13
2023-04-05T05:10:22.472Z,100705.06
2023-04-05T05:12:53.187Z,100707.63
2023-04-05T05:15:21.801Z,100710.09
2023-04-05T05:17:53.165Z,100717.81
2023-04-05T05:20:22.331Z,100718.59
2023-04-05T05:22:51.248Z,100706.53
2023-04-05T05:25:20.104Z,100711.69
2023-04-05T05:27:52.344Z,100716.81
2023-04-05T05:30:24.377Z,100720.16
2023-04-05T05:32:52.949Z,100717.47
2023-04-05T05:35:21.640Z,100719.94
2023-04-05T05:37:52.571Z,100722.50
2023-04-05T05:40:21.168Z,100714.69
2023-04-05T05:42:50.879Z,100710.34
2023-04-05T05:45:19.688Z,100706.88
2023-04-05T05:47:48.360Z,100706.75
2023-04-05T05:50:17.188Z,100709.19
2023-04-05T05:52:45.881Z,100711.88
2023-04-05T05:55:14.321Z,100704.06
2023-04-05T05:57:42.664Z,100701.41
2023-04-05T06:00:15.074Z,100700.50
2023-04-05T06:02:43.592Z,100707.44
2023-04-05T06:05:12.068Z,100703.97
2023-04-05T06:07:40.573Z,100708.22
2023-04-05T06:10:10.424Z,100710.78
2023-04-05T06:12:38.782Z,100705.63
2023-04-05T06:15:09.070Z,100704.88
2023-04-05T06:17:42.632Z,100715.16
2023-04-05T06:20:12.688Z,100707.44
2023-04-05T06:22:41.953Z,100706.53
2023-04-05T06:25:12.862Z,100711.69
2023-04-05T06:27:41.829Z,100706.53
2023-04-05T06:30:11.513Z,100710.88
2023-04-05T06:32:41.291Z,100711.00
2023-04-05T06:35:10.388Z,100705.84
2023-04-05T06:37:38.774Z,100700.06
2023-04-05T06:40:09.270Z,100702.72
2023-04-05T06:42:37.680Z,100710.41
2023-04-05T06:45:09.350Z,100698.47
2023-04-05T06:47:41.051Z,100695.13
2023-04-05T06:50:10.806Z,100698.59
2023-04-05T06:52:39.966Z,100699.59
2023-04-05T06:55:09.332Z,100697.94
2023-04-05T06:57:37.994Z,100706.63
2023-04-05T07:00:11.770Z,100699.16
2023-04-05T07:02:44.246Z,100707.00
2023-04-05T07:05:12.844Z,100700.25
2023-04-05T07:07:43.174Z,100701.16
2023-04-05T07:10:13.017Z,100700.50
2023-04-05T07:12:41.582Z,100691.97
2023-04-05T07:15:11.654Z,100688.75
2023-04-05T07:17:40.170Z,100697.34
2023-04-05T07:20:11.579Z,100690.53
2023-04-05T07:22:39.965Z,100697.56
2023-04-05T07:25:10.549Z,100703.72
2023-04-05T07:27:39.721Z,100697.91
2023-04-05T07:30:10.318Z,100694.44
2023-04-05T07:32:39.040Z,100699.00
2023-04-05T07:35:10.590Z,100694.78
2023-04-05T07:37:39.153Z,100695.78
2023-04-05T07:40:10.940Z,100689.81
2023-04-05T07:42:40.742Z,100687.94
2023-04-05T07:45:10.263Z,100691.28
2023-04-05T07:47:38.848Z,100688.72
2023-04-05T07:50:12.192Z,100684.47
2023-04-05T07:52:40.620Z,100684.47
2023-04-05T07:55:10.941Z,100695.09
2023-04-05T07:57:39.360Z,100685.03
2023-04-05T08:00:13.109Z,100690.72
2023-04-05T08:02:41.924Z,100678.28
2023-04-05T08:05:12.302Z,100684.75
2023-04-05T08:07:40.910Z,100683.41
2023-04-05T08:10:09.916Z,100682.94
2023-04-05T08:12:39.018Z,100693.66
2023-04-05T08:15:08.964Z,100683.59
2023-04-05T08:17:37.435Z,100686.25
2023-04-05T08:20:07.444Z,100684.91
2023-04-05T08:22:37.699Z,100686.13
2023-04-05T08:25:07.258Z,100681.41
2023-04-05T08:27:35.604Z,100681.06
2023-04-05T08:30:06.333Z,100680.69
2023-04-05T08:32:35.020Z,100666.63
2023-04-05T08:35:03.769Z,100668.84
2023-04-05T08:37:38.410Z,100666.69
2023-04-05T08:40:08.604Z,100656.59
2023-04-05T08:42:43.332Z,100651.94
2023-04-05T08:45:15.622Z,100655.03
2023-04-05T08:47:44.326Z,100662.09
2023-04-05T08:50:13.672Z,100664.88
2023-04-05T08:52:49.824Z,100662.69
2023-04-05T08:55:18.745Z,100663.00
2023-04-05T08:57:53.378Z,100658.25
2023-04-05T09:00:22.405Z,100656.69
2023-04-05T09:02:56.342Z,100656.88
2023-04-05T09:05:25.951Z,100661.34
2023-04-05T09:07:59.952Z,100659.25
2023-04-05T09:10:29.150Z,100655.31
2023-04-05T09:12:58.682Z,100652.13
2023-04-05T09:15:28.405Z,100647.88
2023-04-05T09:17:58.029Z,100645.69
2023-04-05T09:20:26.995Z,100640.13
2023-04-05T09:22:58.627Z,100650.28
2023-04-05T09:25:39.695Z,100648.16
2023-04-05T09:28:08.600Z,100657.09
2023-04-05T09:30:38.498Z,100654.72
2023-04-05T09:33:10.916Z,100649.06
2023-04-05T09:35:39.280Z,100646.75
2023-04-05T09:38:09.568Z,100643.66
2023-04-05T09:40:44.758Z,100643.16
2023-04-05T09:43:38.836Z,100648.03
2023-04-05T09:46:07.618Z,100644.94
2023-04-05T09:48:48.365Z,100635.84
2023-04-05T09:51:17.408Z,100634.53
2023-04-05T09:54:05.532Z,100636.72
2023-04-05T09:56:37.053Z,100631.91
2023-04-05T09:59:10.724Z,100642.53
2023-04-05T10:01:41.598Z,100639.03
2023-04-05T10:04:10.591Z,100634.69
2023-04-05T10:06:41.122Z,100633.72
2023-04-05T10:09:15.075Z,100628.53
2023-04-05T10:11:45.538Z,100625.97
2023-04-05T10:14:14.009Z,100632.72
2023-04-05T10:16:54.857Z,100625.16
2023-04-05T10:19:29.631Z,100616.53
2023-04-05T10:22:02.171Z,100617.69
2023-04-05T10:24:39.270Z,100607.63
2023-04-05T10:27:16.134Z,100613.06
2023-04-05T10:29:52.506Z,100612.47
2023-04-05T10:32:43.700Z,100617.72
2023-04-05T10:35:18.755Z,100616.81
2023-04-05T10:38:04.496Z,100610.75
2023-04-05T10:40:35.801Z,100607.22
2023-04-05T10:43:05.793Z,100603.41
2023-04-05T10:45:35.892Z,100600.38
2023-04-05T10:48:11.428Z,100600.13
2023-04-05T10:50:41.426Z,100598.91
2023-04-05T10:53:11.599Z,100591.66
2023-04-05T10:55:41.956Z,100593.00
2023-04-05T10:58:11.992Z,100590.94
2023-04-05T11:00:41.899Z,100582.75
2023-04-05T11:03:10.738Z,100576.38
2023-04-05T11:05:39.947Z,100570.75
2023-04-05T11:08:10.485Z,100571.00
2023-04-05T11:10:41.481Z,100570.13
2023-04-05T11:13:11.912Z,100569.25
2023-04-05T11:15:40.890Z,100572.78
2023-04-05T11:18:13.884Z,100579.13
2023-04-05T11:20:48.777Z,100574.03
2023-04-05T11:23:19.565Z,100567.25
2023-04-05T11:25:53.543Z,100565.63
2023-04-05T11:28:32.614Z,100562.25
2023-04-05T11:31:16.694Z,100558.16
2023-04-05T11:34:10.063Z,100563.75
2023-04-05T11:36:44.887Z,100552.75
2023-04-05T11:39:29.920Z,100546.06
2023-04-05T11:42:03.236Z,100542.19
2023-04-05T11:44:41.356Z,100547.00
2023-04-05T11:47:10.868Z,100549.81
2023-04-05T11:49:40.716Z,100538.66
2023-04-05T11:52:17.675Z,100537.84
2023-04-05T11:54:47.333Z,100535.28
2023-04-05T11:57:21.401Z,100519.06
2023-04-05T11:59:53.247Z,100527.03
2023-04-05T12:02:23.296Z,100526.38
2023-04-05T12:05:01.269Z,100517.94
2023-04-05T12:07:36.736Z,100519.81
2023-04-05T12:10:09.834Z,100514.06
2023-04-05T12:12:41.436Z,100521.19
2023-04-05T12:15:13.801Z,100511.53
2023-04-05T12:17:49.748Z,100512.44
2023-04-05T12:20:21.823Z,100513.09
2023-04-05T12:22:54.398Z,100511.31
2023-04-05T12:25:23.780Z,100511.31
2023-04-05T12:27:54.074Z,100506.22
2023-04-05T12:30:24.744Z,100498.53
2023-04-05T12:32:54.808Z,100510.69
2023-04-05T12:35:31.816Z,100495.28
2023-04-05T12:38:00.931Z,100499.97
2023-04-05T12:40:30.947Z,100497.63
2023-04-05T12:43:05.729Z,100488.47
2023-04-05T12:45:41.817Z,100489.81
2023-04-05T12:48:12.146Z,100486.53
2023-04-05T12:50:45.459Z,100492.81
2023-04-05T12:53:20.216Z,100486.81
2023-04-05T12:55:53.185Z,100481.69
2023-04-05T12:58:32.998Z,100478.28
2023-04-05T13:01:01.580Z,100478.44
2023-04-05T13:03:30.233Z,100473.53
2023-04-05T13:05:59.146Z,100465.00
2023-04-05T13:08:27.923Z,100470.66
2023-04-05T13:10:58.016Z,100464.97
2023-04-05T13:13:28.548Z,100458.03
2023-04-05T13:15:56.898Z,100464.38
2023-04-05T13:18:25.228Z,100459.44
2023-04-05T13:20:53.658Z,100461.41
2023-04-05T13:23:22.309Z,100447.03
2023-04-05T13:25:50.711Z,100449.03
2023-04-05T13:28:19.133Z,100445.75
2023-04-05T13:30:50.103Z,100442.34
2023-04-05T13:33:19.581Z,100438.94
2023-04-05T13:35:48.363Z,100437.22
2023-04-05T13:38:16.907Z,100434.78
2023-04-05T13:40:46.166Z,100429.72
2023-04-05T13:43:15.294Z,100423.94
2023-04-05T13:45:43.800Z,100424.22
2023-04-05T13:48:13.896Z,100431.47
2023-04-05T13:50:42.628Z,100428.06
2023-04-05T13:53:11.290Z,100418.56
2023-04-05T13:55:39.785Z,100421.25
2023-04-05T13:58:08.428Z,100416.19
2023-04-05T14:00:37.442Z,100409.50
2023-04-05T14:03:06.467Z,100409.97
2023-04-05T14:05:36.620Z,100407.78
2023-04-05T14:08:05.072Z,100406.06
2023-04-05T14:10:33.990Z,100403.41
2023-04-05T14:13:02.495Z,100400.59
2023-04-05T14:15:31.022Z,100399.44
2023-04-05T14:17:59.899Z,100396.72
2023-04-05T14:20:28.636Z,100393.34
2023-04-05T14:23:01.705Z,100394.16
2023-04-05T14:25:30.748Z,100390.66
2023-04-05T14:27:59.375Z,100392.44
2023-04-05T14:30:29.731Z,100383.13
2023-04-05T14:32:58.388Z,100388.63
2023-04-05T14:35:26.990Z,100380.31
2023-04-05T14:37:56.004Z,100373.78
2023-04-05T14:40:26.288Z,100359.38
2023-04-05T14:42:55.065Z,100360.59
2023-04-05T14:45:27.174Z,100359.00
2023-04-05T14:47:55.744Z,100361.63
2023-04-05T14:50:24.606Z,100354.44
2023-04-05T14:52:54.644Z,100357.75
2023-04-05T14:55:23.614Z,100351.31
2023-04-05T14:57:53.564Z,100362.41
2023-04-05T15:00:22.477Z,100353.53
2023-04-05T15:02:51.708Z,100364.66
2023-04-05T15:05:20.945Z,100350.66
2023-04-05T15:07:49.896Z,100354.88
2023-04-05T15:10:20.146Z,100354.75
2023-04-05T15:12:50.443Z,100352.97
2023-04-05T15:15:21.085Z,100344.50
2023-04-05T15:17:49.817Z,100332.66
2023-04-05T15:20:18.474Z,100338.06
2023-04-05T15:22:47.131Z,100338.22
2023-04-05T15:25:15.812Z,100332.19
2023-04-05T15:27:44.415Z,100334.78
2023-04-05T15:30:14.087Z,100337.41
2023-04-05T15:32:44.028Z,100327.63
2023-04-05T15:35:13.402Z,100340.25
2023-04-05T15:37:42.147Z,100330.31
2023-04-05T15:40:11.913Z,100328.22
2023-04-05T15:42:40.700Z,100320.31
2023-04-05T15:45:11.004Z,100321.44
2023-04-05T15:47:40.689Z,100316.34
2023-04-05T15:50:11.343Z,100308.56
2023-04-05T15:52:39.903Z,100309.38
2023-04-05T15:55:09.455Z,100309.97
2023-04-05T15:57:38.712Z,100320.97
2023-04-05T16:00:09.781Z,100314.75
2023-04-05T16:02:39.300Z,100316.41
2023-04-05T16:05:10.649Z,100314.56
2023-04-05T16:07:39.448Z,100314.50
2023-04-05T16:10:10.245Z,100311.81
2023-04-05T16:12:38.910Z,100309.31
2023-04-05T16:15:08.882Z,100318.06
2023-04-05T16:17:37.774Z,100316.41
2023-04-05T16:20:08.361Z,100306.28
2023-04-05T16:22:38.904Z,100304.66
2023-04-05T16:25:08.125Z,100308.97
2023-04-05T16:27:37.528Z,100300.19
2023-04-05T16:30:07.671Z,100307.25
2023-04-05T16:32:36.624Z,100305.47
2023-04-05T16:35:06.287Z,100306.97
2023-04-05T16:37:34.844Z,100297.22
2023-04-05T16:40:05.144Z,100299.53
2023-04-05T16:42:33.702Z,100303.56
2023-04-05T16:45:02.668Z,100302.38
2023-04-05T16:47:31.466Z,100303.06
2023-04-05T16:50:00.549Z,100309.06
2023-04-05T16:52:29.177Z,100300.28
2023-04-05T16:54:57.755Z,100298.56
2023-04-05T16:57:27.973Z,100299.50
2023-04-05T16:59:56.457Z,100305.66
2023-04-05T17:02:25.373Z,100304.03
2023-04-05T17:04:54.174Z,100299.72
2023-04-05T17:07:22.666Z,100304.03
2023-04-05T17:09:51.480Z,100304.91
2023-04-05T17:12:20.171Z,100298.84
2023-04-05T17:14:50.286Z,100301.44
2023-04-05T17:17:19.175Z,100303.88
2023-04-05T17:19:47.733Z,100297.69
2023-04-05T17:22:16.387Z,100293.22
2023-04-05T17:24:47.297Z,100300.06
2023-04-05T17:27:16.253Z,100298.06
2023-04-05T17:29:44.984Z,100298.00
2023-04-05T17:32:15.044Z,100296.06
2023-04-05T17:34:44.040Z,100301.25
2023-04-05T17:37:12.868Z,100298.66
2023-04-05T17:39:41.657Z,100299.50
2023-04-05T17:42:10.956Z,100304.53
2023-04-05T17:44:40.171Z,100299.22
2023-04-05T17:47:09.877Z,100307.81
2023-04-05T17:49:40.225Z,100299.06
2023-04-05T17:52:09.382Z,100299.06
2023-04-05T17:54:38.302Z,100300.72
2023-04-05T17:57:07.031Z,100298.94
2023-04-05T17:59:36.279Z,100305.75
2023-04-05T18:02:05.089Z,100307.25
2023-04-05T18:04:34.304Z,100300.16
2023-04-05T18:07:04.806Z,100303.53
2023-04-05T18:09:33.783Z,100303.38
2023-04-05T18:12:02.665Z,100308.56
2023-04-05T18:14:31.442Z,100305.94
2023-04-05T18:17:00.357Z,100310.22
2023-04-05T18:19:29.208Z,100312.72
2023-04-05T18:21:57.825Z,100311.03
2023-04-05T18:24:27.752Z,100311.84
2023-04-05T18:26:57.474Z,100317.03
2023-04-05T18:29:28.824Z,100316.09
2023-04-05T18:31:58.190Z,100308.34
2023-04-05T18:34:27.135Z,100322.22
2023-04-05T18:36:56.175Z,100310.06
2023-04-05T18:39:27.368Z,100319.53
2023-04-05T18:41:57.786Z,100322.03
2023-04-05T18:44:26.512Z,100327.06
2023-04-05T18:46:54.998Z,100328.72
2023-04-05T18:49:23.889Z,100331.22
2023-04-05T18:51:52.556Z,100329.44
2023-04-05T18:54:21.130Z,100337.13
2023-04-05T18:56:49.684Z,100331.94
2023-04-05T18:59:19.943Z,100335.44
2023-04-05T19:01:49.110Z,100333.59
2023-04-05T19:04:17.966Z,100344.78
2023-04-05T19:06:46.671Z,100339.50
2023-04-05T19:09:16.697Z,100341.13
2023-04-05T19:11:45.668Z,100347.16
2023-04-05T19:14:14.271Z,100349.75
2023-04-05T19:16:44.476Z,100352.25
2023-04-05T19:19:13.341Z,100354.75
2023-04-05T19:21:41.779Z,100350.47
2023-04-05T19:24:13.344Z,100357.44
2023-04-05T19:26:43.064Z,100346.91
2023-04-05T19:29:11.770Z,100350.38
2023-04-05T19:31:40.811Z,100352.84
2023-04-05T19:34:11.078Z,100356.94
2023-04-05T19:36:39.882Z,100356.09
2023-04-05T19:39:10.326Z,100356.09
2023-04-05T19:41:39.081Z,100356.94
2023-04-05T19:44:13.028Z,100347.44
2023-04-05T19:46:42.680Z,100343.88
2023-04-05T19:49:14.498Z,100341.28
2023-04-05T19:51:43.888Z,100344.66
2023-04-05T19:54:14.845Z,100344.75
2023-04-05T19:56:43.775Z,100349.84
2023-04-05T19:59:30.701Z,100346.31
2023-04-05T20:02:00.462Z,100346.25
2023-04-05T20:04:34.626Z,100344.38
2023-04-05T20:07:04.476Z,100338.28
2023-04-05T20:09:34.523Z,100333.88
2023-04-05T20:12:05.677Z,100339.06
2023-04-05T20:14:42.599Z,100347.63
2023-04-05T20:17:12.523Z,100342.31
2023-04-05T20:19:56.453Z,100343.94
2023-04-05T20:22:29.110Z,100343.94
2023-04-05T20:24:57.674Z,100335.97
2023-04-05T20:27:26.427Z,100341.16
2023-04-05T20:29:55.032Z,100330.75
2023-04-05T20:32:25.848Z,100337.53
2023-04-05T20:34:56.040Z,100334.88
2023-04-05T20:37:24.785Z,100340.06
2023-04-05T20:39:54.369Z,100339.09
2023-04-05T20:42:22.845Z,100334.66
2023-04-05T20:44:51.422Z,100334.56
2023-04-05T20:47:20.035Z,100328.44
2023-04-05T20:49:49.237Z,100329.25
2023-04-05T20:52:19.765Z,100330.84
2023-04-05T20:54:49.845Z,100327.31
2023-04-05T20:57:18.620Z,100329.03
2023-04-05T20:59:47.710Z,100330.53
2023-04-05T21:02:16.299Z,100329.59
2023-04-05T21:04:45.757Z,100322.56
2023-04-05T21:07:14.374Z,100319.75
2023-04-05T21:09:44.310Z,100314.56
2023-04-05T21:12:13.217Z,100319.56
2023-04-05T21:14:42.110Z,100311.66
2023-04-05T21:17:10.765Z,100309.88
2023-04-05T21:19:39.253Z,100308.03
2023-04-05T21:22:07.743Z,100307.06
2023-04-05T21:24:36.334Z,100301.72
2023-04-05T21:27:06.835Z,100302.47
2023-04-05T21:29:35.720Z,100303.16
2023-04-05T21:32:04.464Z,100312.53
2023-04-05T21:34:33.047Z,100313.25
2023-04-05T21:37:01.710Z,100311.34
2023-04-05T21:39:30.240Z,100314.72
2023-04-05T21:41:58.806Z,100311.16
2023-04-05T21:44:28.748Z,100312.00
2023-04-05T21:46:57.848Z,100304.88
2023-04-05T21:49:26.769Z,100309.09
2023-04-05T21:51:55.346Z,100316.69
2023-04-05T21:54:23.748Z,100314.84
2023-04-05T21:56:52.426Z,100294.84
2023-04-05T21:59:21.009Z,100305.13
2023-04-05T22:01:51.680Z,100300.78
2023-04-05T22:04:20.412Z,100304.06
2023-04-05T22:06:48.974Z,100304.00
2023-04-05T22:09:18.077Z,100296.88
2023-04-05T22:11:47.338Z,100302.84
2023-04-05T22:14:15.978Z,100296.69
2023-04-05T22:16:44.852Z,100303.44
2023-04-05T22:19:15.880Z,100288.72
2023-04-05T22:21:44.926Z,100289.47
2023-04-05T22:24:14.412Z,100290.09
2023-04-05T22:26:43.724Z,100292.63
2023-04-05T22:29:12.200Z,100287.25
2023-04-05T22:31:41.267Z,100278.47
2023-04-05T22:34:09.991Z,100286.13
2023-04-05T22:36:40.464Z,100272.22
2023-04-05T22:39:09.334Z,100279.81
2023-04-05T22:41:38.378Z,100271.03
2023-04-05T22:44:07.953Z,100274.34
2023-04-05T22:46:37.783Z,100276.81
2023-04-05T22:49:06.361Z,100260.38
2023-04-05T22:51:35.267Z,100271.41
2023-04-05T22:54:05.430Z,100272.16
2023-04-05T22:56:33.910Z,100270.28
2023-04-05T22:59:02.344Z,100260.59
2023-04-05T23:01:31.908Z,100258.81
2023-04-05T23:04:00.842Z,100259.72
2023-04-05T23:06:29.476Z,100259.63
2023-04-05T23:08:58.206Z,100255.19
2023-04-05T23:11:28.602Z,100260.25
2023-04-05T23:13:57.168Z,100255.81
2023-04-05T23:16:26.708Z,100252.19
2023-04-05T23:18:55.562Z,100250.41
2023-04-05T23:21:24.670Z,100251.19
2023-04-05T23:23:53.264Z,100253.72
2023-04-05T23:26:22.155Z,100249.25
2023-04-05T23:28:52.163Z,100247.44
2023-04-05T23:31:20.764Z,100248.09
2023-04-05T23:33:49.352Z,100247.09
2023-04-05T23:36:17.938Z,100245.31
2023-04-05T23:38:46.721Z,100240.91
2023-04-05T23:41:15.320Z,100246.78
2023-04-05T23:43:43.917Z,100248.41
2023-04-05T23:46:14.148Z,100237.09
2023-04-05T23:48:43.083Z,100233.53
2023-04-05T23:51:11.768Z,100235.06
2023-04-05T23:53:40.379Z,100228.91
2023-04-05T23:56:09.011Z,100221.81
2023-04-05T23:58:37.767Z,100226.88
